createdAt,value
2018-10-18T00:00:44.250Z,6.73
2018-10-18T00:03:12.630Z,6.80
2018-10-18T00:05:40.994Z,8.10
2018-10-18T00:08:09.567Z,6.27
2018-10-18T00:10:37.907Z,6.20
2018-10-18T00:13:06.206Z,6.20
2018-10-18T00:15:34.592Z,6.40
2018-10-18T00:18:02.884Z,6.27
2018-10-18T00:20:31.254Z,5.73
2018-10-18T00:22:59.657Z,6.70
2018-10-18T00:25:27.966Z,5.80
2018-10-18T00:27:56.329Z,5.37
2018-10-18T00:30:24.750Z,5.33
2018-10-18T00:32:53.036Z,5.93
2018-10-18T00:35:21.485Z,5.50
2018-10-18T00:37:49.791Z,5.63
2018-10-18T00:40:18.237Z,4.97
2018-10-18T00:42:46.513Z,6.47
2018-10-18T00:45:14.751Z,4.83
2018-10-18T00:47:43.142Z,5.60
2018-10-18T00:50:12.112Z,5.37
2018-10-18T00:52:40.581Z,4.80
2018-10-18T00:55:10.254Z,4.93
2018-10-18T00:57:39.076Z,5.27
2018-10-18T01:00:07.933Z,4.70
2018-10-18T01:02:36.254Z,5.00
2018-10-18T01:05:04.604Z,4.53
2018-10-18T01:07:33.983Z,4.40
2018-10-18T01:10:02.380Z,5.17
2018-10-18T01:12:30.835Z,4.87
2018-10-18T01:14:59.076Z,4.53
2018-10-18T01:17:27.510Z,4.47
2018-10-18T01:19:55.850Z,3.53
2018-10-18T01:22:24.067Z,4.73
2018-10-18T01:24:52.447Z,4.33
2018-10-18T01:27:20.757Z,4.57
2018-10-18T01:29:49.208Z,4.70
2018-10-18T01:32:17.575Z,4.70
2018-10-18T01:34:45.954Z,4.00
2018-10-18T01:37:14.324Z,5.00
2018-10-18T01:39:42.677Z,4.00
2018-10-18T01:42:11.192Z,4.63
2018-10-18T01:44:39.429Z,4.50
2018-10-18T01:47:07.806Z,4.20
2018-10-18T01:49:36.226Z,4.73
2018-10-18T01:52:04.846Z,3.70
2018-10-18T01:54:33.145Z,3.60
2018-10-18T01:57:01.550Z,4.27
2018-10-18T01:59:29.902Z,4.07
2018-10-18T02:01:58.332Z,3.67
2018-10-18T02:04:26.624Z,4.50
2018-10-18T02:06:54.984Z,3.60
2018-10-18T02:09:23.311Z,4.97
2018-10-18T02:11:51.586Z,4.17
2018-10-18T02:14:19.923Z,3.27
2018-10-18T02:16:48.310Z,3.90
2018-10-18T02:19:16.701Z,3.70
2018-10-18T02:21:44.952Z,4.20
2018-10-18T02:24:13.287Z,3.57
2018-10-18T02:26:41.671Z,3.70
2018-10-18T02:29:10.076Z,4.17
2018-10-18T02:31:38.512Z,4.00
2018-10-18T02:34:06.928Z,3.17
2018-10-18T02:36:35.257Z,3.63
2018-10-18T02:39:05.066Z,3.17
2018-10-18T02:41:33.348Z,4.30
2018-10-18T02:44:01.709Z,3.90
2018-10-18T02:46:29.958Z,3.60
2018-10-18T02:48:58.230Z,3.50
2018-10-18T02:51:26.682Z,3.33
2018-10-18T02:53:55.025Z,2.50
2018-10-18T02:56:23.386Z,3.37
2018-10-18T02:58:51.886Z,3.77
2018-10-18T03:01:20.199Z,3.47
2018-10-18T03:03:48.527Z,3.40
2018-10-18T03:06:16.997Z,3.73
2018-10-18T03:08:45.365Z,3.07
2018-10-18T03:11:13.660Z,3.20
2018-10-18T03:13:41.961Z,3.60
2018-10-18T03:16:10.447Z,4.27
2018-10-18T03:18:38.698Z,3.90
2018-10-18T03:21:07.068Z,2.93
2018-10-18T03:23:35.461Z,2.90
2018-10-18T03:26:03.994Z,2.77
2018-10-18T03:28:32.323Z,2.97
2018-10-18T03:31:00.712Z,3.07
2018-10-18T03:33:29.517Z,3.40
2018-10-18T03:35:57.921Z,3.20
2018-10-18T03:38:26.232Z,2.83
2018-10-18T03:40:54.513Z,3.13
2018-10-18T03:43:22.891Z,2.90
2018-10-18T03:45:51.173Z,2.87
2018-10-18T03:48:19.566Z,3.00
2018-10-18T03:50:47.781Z,2.87
2018-10-18T03:53:16.144Z,2.20
2018-10-18T03:55:44.471Z,3.10
2018-10-18T03:58:12.843Z,2.77
2018-10-18T04:00:41.208Z,3.10
2018-10-18T04:03:09.567Z,2.63
2018-10-18T04:05:37.955Z,2.60
2018-10-18T04:08:06.855Z,3.13
2018-10-18T04:10:35.125Z,2.20
2018-10-18T04:13:03.567Z,3.00
2018-10-18T04:15:31.810Z,2.47
2018-10-18T04:18:00.355Z,2.70
2018-10-18T04:20:28.749Z,2.57
2018-10-18T04:22:57.001Z,2.90
2018-10-18T04:25:25.360Z,2.97
2018-10-18T04:27:53.739Z,2.87
2018-10-18T04:30:22.293Z,2.10
2018-10-18T04:32:50.652Z,2.67
2018-10-18T04:35:19.091Z,2.07
2018-10-18T04:37:47.498Z,1.83
2018-10-18T04:40:15.868Z,2.83
2018-10-18T04:42:44.201Z,2.47
2018-10-18T04:45:12.505Z,2.27
2018-10-18T04:47:40.870Z,2.67
2018-10-18T04:50:09.857Z,2.83
2018-10-18T04:52:38.163Z,3.00
2018-10-18T04:55:06.548Z,1.90
2018-10-18T04:57:34.935Z,2.80
2018-10-18T05:00:03.389Z,2.90
2018-10-18T05:02:31.966Z,2.30
2018-10-18T05:05:11.616Z,2.70
2018-10-18T05:07:40.175Z,1.87
2018-10-18T05:10:08.667Z,2.17
2018-10-18T05:12:37.091Z,2.50
2018-10-18T05:15:06.403Z,2.50
2018-10-18T05:17:34.812Z,2.03
2018-10-18T05:20:03.217Z,2.37
2018-10-18T05:22:31.559Z,2.40
2018-10-18T05:24:59.947Z,2.43
2018-10-18T05:27:28.227Z,2.20
2018-10-18T05:29:56.737Z,1.97
2018-10-18T05:32:25.248Z,2.97
2018-10-18T05:34:54.448Z,2.20
2018-10-18T05:37:23.483Z,2.00
2018-10-18T05:39:51.820Z,2.40
2018-10-18T05:42:20.175Z,1.87
2018-10-18T05:44:48.607Z,2.30
2018-10-18T05:47:17.056Z,2.10
2018-10-18T05:49:45.325Z,2.63
2018-10-18T05:52:13.701Z,2.10
2018-10-18T05:54:42.042Z,2.30
2018-10-18T05:57:10.923Z,2.90
2018-10-18T05:59:39.389Z,2.60
2018-10-18T06:02:07.885Z,2.40
2018-10-18T06:04:36.486Z,3.00
2018-10-18T06:07:04.857Z,2.47
2018-10-18T06:09:34.359Z,2.40
2018-10-18T06:12:02.894Z,2.53
2018-10-18T06:14:31.450Z,2.80
2018-10-18T06:16:59.895Z,3.17
2018-10-18T06:19:28.442Z,2.10
2018-10-18T06:21:56.755Z,3.20
2018-10-18T06:24:25.040Z,2.30
2018-10-18T06:26:53.446Z,3.52
2018-10-18T06:29:21.746Z,3.83
2018-10-18T06:31:50.050Z,3.93
2018-10-18T06:34:18.517Z,4.40
2018-10-18T06:36:46.804Z,5.67
2018-10-18T06:39:15.226Z,5.33
2018-10-18T06:41:43.556Z,5.50
2018-10-18T06:44:11.914Z,5.90
2018-10-18T06:46:40.237Z,5.47
2018-10-18T06:49:08.623Z,5.33
2018-10-18T06:51:37.054Z,5.03
2018-10-18T06:54:05.504Z,4.60
2018-10-18T06:56:33.727Z,4.60
2018-10-18T06:59:02.048Z,5.33
2018-10-18T07:01:30.428Z,6.07
2018-10-18T07:03:58.740Z,4.63
2018-10-18T07:06:27.110Z,4.80
2018-10-18T07:08:55.474Z,4.30
2018-10-18T07:11:23.950Z,4.77
2018-10-18T07:13:52.233Z,5.70
2018-10-18T07:16:20.613Z,4.90
2018-10-18T07:18:49.131Z,4.50
2018-10-18T07:21:17.456Z,4.30
2018-10-18T07:23:46.077Z,3.70
2018-10-18T07:26:14.497Z,3.53
2018-10-18T07:28:42.849Z,4.50
2018-10-18T07:31:11.141Z,4.13
2018-10-18T07:33:39.518Z,3.73
2018-10-18T07:36:07.870Z,3.60
2018-10-18T07:38:36.170Z,5.17
2018-10-18T07:41:04.663Z,4.07
2018-10-18T07:43:33.044Z,4.50
2018-10-18T07:46:01.348Z,3.80
2018-10-18T07:48:29.680Z,4.50
2018-10-18T07:50:58.075Z,5.30
2018-10-18T07:53:26.410Z,3.43
2018-10-18T07:55:54.703Z,3.70
2018-10-18T07:58:23.014Z,3.40
2018-10-18T08:00:51.541Z,3.47
2018-10-18T08:03:19.872Z,4.17
2018-10-18T08:05:48.250Z,3.57
2018-10-18T08:08:16.566Z,4.17
2018-10-18T08:10:44.898Z,3.80
2018-10-18T08:13:13.305Z,3.30
2018-10-18T08:15:41.538Z,3.30
2018-10-18T08:18:10.029Z,4.00
2018-10-18T08:20:38.330Z,2.83
2018-10-18T08:23:06.602Z,4.40
2018-10-18T08:25:35.022Z,3.33
2018-10-18T08:28:03.342Z,4.33
2018-10-18T08:30:31.888Z,3.63
2018-10-18T08:33:00.347Z,3.20
2018-10-18T08:35:28.734Z,3.30
2018-10-18T08:37:57.222Z,3.70
2018-10-18T08:40:25.546Z,3.47
2018-10-18T08:42:53.983Z,4.03
2018-10-18T08:45:22.436Z,3.73
2018-10-18T08:47:50.750Z,2.67
2018-10-18T08:50:19.094Z,4.20
2018-10-18T08:52:47.454Z,3.73
2018-10-18T08:55:15.873Z,3.40
2018-10-18T08:57:44.296Z,3.43
2018-10-18T09:00:13.202Z,2.70
2018-10-18T09:02:42.321Z,2.87
2018-10-18T09:05:10.986Z,3.63
2018-10-18T09:07:39.299Z,3.17
2018-10-18T09:10:08.094Z,2.87
2018-10-18T09:12:36.717Z,1.90
2018-10-18T09:15:06.271Z,2.93
2018-10-18T09:17:34.634Z,3.90
2018-10-18T09:20:03.012Z,3.30
2018-10-18T09:22:31.364Z,2.83
2018-10-18T09:24:59.786Z,3.70
2018-10-18T09:27:28.206Z,3.00
2018-10-18T09:29:56.485Z,2.57
2018-10-18T09:32:25.078Z,3.63
2018-10-18T09:34:53.408Z,3.20
2018-10-18T09:37:22.247Z,3.70
2018-10-18T09:39:50.768Z,2.50
2018-10-18T09:42:19.089Z,3.27
2018-10-18T09:44:47.433Z,3.00
2018-10-18T09:47:15.746Z,3.40
2018-10-18T09:49:44.226Z,2.63
2018-10-18T09:52:12.622Z,2.73
2018-10-18T09:54:40.994Z,3.03
2018-10-18T09:57:09.296Z,3.03
2018-10-18T09:59:37.645Z,3.43
2018-10-18T10:02:11.426Z,3.20
2018-10-18T10:04:39.950Z,2.97
2018-10-18T10:07:08.381Z,3.17
2018-10-18T10:09:37.284Z,2.90
2018-10-18T10:12:05.872Z,2.77
2018-10-18T10:14:34.348Z,3.00
2018-10-18T10:17:02.722Z,3.40
2018-10-18T10:19:31.071Z,3.00
2018-10-18T10:21:59.750Z,2.20
2018-10-18T10:24:28.094Z,2.63
2018-10-18T10:26:56.460Z,4.30
2018-10-18T10:29:24.920Z,3.80
2018-10-18T10:31:53.571Z,4.37
2018-10-18T10:34:21.923Z,3.27
2018-10-18T10:36:50.334Z,3.97
2018-10-18T10:39:18.775Z,4.60
2018-10-18T10:41:47.160Z,4.70
2018-10-18T10:44:15.503Z,5.00
2018-10-18T10:46:44.061Z,6.00
2018-10-18T10:49:12.462Z,5.23
2018-10-18T10:51:40.928Z,5.40
2018-10-18T10:54:10.018Z,5.30
2018-10-18T10:56:38.268Z,5.30
2018-10-18T10:59:17.433Z,4.77
2018-10-18T11:01:45.755Z,4.13
2018-10-18T11:04:14.400Z,5.53
2018-10-18T11:06:42.923Z,5.80
2018-10-18T11:09:12.084Z,5.97
2018-10-18T11:11:40.333Z,6.03
2018-10-18T11:14:08.728Z,5.10
2018-10-18T11:16:37.056Z,5.47
2018-10-18T11:19:05.396Z,6.13
2018-10-18T11:21:33.795Z,5.90
2018-10-18T11:24:02.196Z,5.73
2018-10-18T11:26:30.571Z,5.30
2018-10-18T11:28:58.929Z,5.47
2018-10-18T11:31:27.287Z,7.63
2018-10-18T11:33:55.655Z,6.50
2018-10-18T11:36:24.129Z,4.83
2018-10-18T11:38:52.408Z,6.30
2018-10-18T11:41:20.797Z,5.30
2018-10-18T11:43:49.306Z,6.63
2018-10-18T11:46:17.634Z,6.57
2018-10-18T11:48:46.135Z,5.57
2018-10-18T11:51:14.496Z,6.27
2018-10-18T11:53:42.889Z,4.97
2018-10-18T11:56:11.421Z,6.40
2018-10-18T11:58:39.657Z,6.60
2018-10-18T12:01:08.201Z,6.87
2018-10-18T12:03:36.521Z,5.50
2018-10-18T12:06:05.051Z,6.10
2018-10-18T12:08:33.379Z,6.37
2018-10-18T12:11:01.868Z,4.97
2018-10-18T12:13:30.244Z,6.13
2018-10-18T12:15:58.555Z,6.50
2018-10-18T12:18:27.086Z,6.87
2018-10-18T12:20:55.503Z,5.67
2018-10-18T12:23:23.826Z,5.10
2018-10-18T12:25:52.192Z,6.00
2018-10-18T12:28:20.528Z,5.90
2018-10-18T12:30:48.811Z,5.90
2018-10-18T12:33:17.205Z,5.87
2018-10-18T12:35:45.527Z,5.47
2018-10-18T12:38:13.945Z,5.97
2018-10-18T12:40:42.368Z,6.10
2018-10-18T12:43:10.679Z,6.27
2018-10-18T12:45:39.024Z,5.73
2018-10-18T12:48:07.534Z,5.83
2018-10-18T12:50:35.833Z,5.50
2018-10-18T12:53:04.210Z,6.50
2018-10-18T12:55:32.614Z,5.97
2018-10-18T12:58:01.089Z,6.30
2018-10-18T13:00:29.576Z,6.17
2018-10-18T13:02:58.007Z,5.50
2018-10-18T13:05:26.338Z,5.33
2018-10-18T13:07:54.617Z,5.47
2018-10-18T13:10:23.013Z,5.17
2018-10-18T13:12:51.425Z,5.70
2018-10-18T13:15:19.847Z,5.10
2018-10-18T13:17:48.206Z,5.50
2018-10-18T13:20:16.603Z,5.93
2018-10-18T13:22:44.867Z,5.40
2018-10-18T13:25:13.255Z,5.70
2018-10-18T13:27:41.598Z,5.27
2018-10-18T13:30:10.943Z,4.40
2018-10-18T13:32:40.100Z,5.30
2018-10-18T13:35:09.155Z,4.80
2018-10-18T13:37:37.717Z,5.23
2018-10-18T13:40:07.508Z,6.07
2018-10-18T13:42:35.869Z,5.23
2018-10-18T13:45:04.531Z,5.23
2018-10-18T13:47:32.845Z,5.00
2018-10-18T13:50:01.184Z,4.30
2018-10-18T13:52:29.759Z,5.53
2018-10-18T13:54:58.226Z,4.47
2018-10-18T13:57:26.737Z,4.73
2018-10-18T14:00:11.372Z,5.13
2018-10-18T14:02:39.731Z,4.33
2018-10-18T14:05:08.244Z,5.43
2018-10-18T14:07:36.689Z,4.70
2018-10-18T14:10:05.160Z,5.10
2018-10-18T14:12:33.527Z,5.20
2018-10-18T14:15:01.937Z,5.27
2018-10-18T14:17:30.624Z,5.00
2018-10-18T14:19:59.066Z,4.43
2018-10-18T14:22:27.432Z,4.50
2018-10-18T14:24:56.221Z,4.60
2018-10-18T14:27:24.684Z,4.83
2018-10-18T14:29:53.064Z,4.10
2018-10-18T14:32:21.476Z,5.20
2018-10-18T14:34:49.776Z,4.27
2018-10-18T14:37:18.436Z,4.00
2018-10-18T14:39:47.026Z,4.63
2018-10-18T14:42:15.335Z,4.80
2018-10-18T14:44:44.907Z,5.83
2018-10-18T14:47:13.298Z,4.00
2018-10-18T14:49:41.686Z,3.83
2018-10-18T14:52:10.175Z,4.60
2018-10-18T14:54:38.522Z,5.50
2018-10-18T14:57:06.866Z,5.17
2018-10-18T14:59:35.597Z,4.80
2018-10-18T15:02:04.407Z,4.60
2018-10-18T15:04:32.870Z,4.57
2018-10-18T15:07:01.354Z,4.60
2018-10-18T15:09:29.717Z,3.53
2018-10-18T15:11:58.036Z,5.07
2018-10-18T15:14:26.355Z,4.13
2018-10-18T15:16:54.748Z,4.20
2018-10-18T15:19:23.132Z,4.77
2018-10-18T15:21:51.481Z,4.80
2018-10-18T15:24:19.851Z,3.67
2018-10-18T15:26:48.653Z,3.63
2018-10-18T15:29:17.327Z,4.60
2018-10-18T15:31:46.276Z,5.00
2018-10-18T15:34:14.774Z,5.23
2018-10-18T15:36:43.347Z,4.50
2018-10-18T15:39:12.487Z,3.57
2018-10-18T15:41:41.312Z,5.30
2018-10-18T15:44:10.736Z,5.00
2018-10-18T15:46:39.346Z,6.40
2018-10-18T15:49:08.224Z,4.47
2018-10-18T15:51:37.254Z,5.00
2018-10-18T15:54:06.079Z,5.33
2018-10-18T15:56:34.674Z,6.40
2018-10-18T15:59:03.462Z,12.87
2018-10-18T16:01:32.459Z,7.30
2018-10-18T16:04:00.958Z,5.73
2018-10-18T16:06:29.889Z,6.03
2018-10-18T16:08:58.230Z,6.40
2018-10-18T16:11:26.858Z,6.33
2018-10-18T16:13:55.257Z,5.43
2018-10-18T16:16:23.608Z,7.33
2018-10-18T16:18:54.397Z,5.67
2018-10-18T16:21:22.862Z,5.70
2018-10-18T16:23:51.188Z,5.20
2018-10-18T16:26:19.887Z,6.28
2018-10-18T16:28:48.231Z,6.33
2018-10-18T16:31:16.687Z,6.40
2018-10-18T16:33:45.283Z,7.00
2018-10-18T16:36:13.666Z,5.70
2018-10-18T16:38:42.100Z,7.23
2018-10-18T16:41:11.536Z,6.50
2018-10-18T16:43:39.790Z,6.60
2018-10-18T16:46:08.172Z,7.80
2018-10-18T16:48:36.508Z,8.70
2018-10-18T16:51:05.210Z,7.67
2018-10-18T16:53:33.658Z,7.70
2018-10-18T16:56:02.144Z,7.47
2018-10-18T16:58:30.626Z,8.30
2018-10-18T17:00:59.242Z,9.00
2018-10-18T17:03:27.620Z,8.80
2018-10-18T17:05:56.084Z,10.13
2018-10-18T17:08:24.452Z,9.60
2018-10-18T17:10:52.919Z,8.60
2018-10-18T17:13:21.480Z,8.70
2018-10-18T17:15:50.038Z,10.50
2018-10-18T17:18:18.579Z,9.43
2018-10-18T17:20:47.194Z,10.27
2018-10-18T17:23:15.556Z,9.93
2018-10-18T17:25:43.964Z,9.27
2018-10-18T17:28:12.418Z,9.83
2018-10-18T17:30:40.831Z,10.23
2018-10-18T17:33:09.865Z,10.87
2018-10-18T17:35:38.404Z,9.27
2018-10-18T17:38:06.817Z,8.87
2018-10-18T17:40:35.321Z,10.30
2018-10-18T17:43:03.770Z,10.60
2018-10-18T17:45:32.115Z,9.30
2018-10-18T17:48:00.441Z,10.87
2018-10-18T17:50:28.890Z,9.67
2018-10-18T17:52:57.248Z,9.10
2018-10-18T17:55:25.673Z,9.67
2018-10-18T17:57:54.221Z,8.40
2018-10-18T18:05:28.846Z,8.50
2018-10-18T18:07:57.252Z,8.27
2018-10-18T18:10:25.733Z,8.10
2018-10-18T18:12:54.120Z,7.20
2018-10-18T18:15:22.585Z,8.60
2018-10-18T18:17:50.940Z,8.73
2018-10-18T18:20:19.269Z,7.70
2018-10-18T18:22:47.609Z,7.73
2018-10-18T18:25:15.953Z,7.67
2018-10-18T18:27:44.425Z,7.23
2018-10-18T18:30:14.042Z,8.20
2018-10-18T18:32:42.865Z,7.50
2018-10-18T18:35:11.273Z,6.87
2018-10-18T18:37:39.672Z,8.30
2018-10-18T18:40:09.017Z,9.47
2018-10-18T18:42:37.581Z,7.73
2018-10-18T18:45:11.249Z,8.80
2018-10-18T18:47:39.595Z,8.53
2018-10-18T18:50:08.596Z,8.37
2018-10-18T18:52:36.934Z,8.67
2018-10-18T18:55:06.179Z,7.60
2018-10-18T18:57:34.559Z,8.83
2018-10-18T19:00:03.039Z,8.73
2018-10-18T19:02:31.356Z,8.60
2018-10-18T19:04:59.839Z,8.50
2018-10-18T19:07:28.333Z,8.97
2018-10-18T19:09:56.678Z,8.90
2018-10-18T19:12:25.067Z,9.10
2018-10-18T19:14:53.361Z,9.07
2018-10-18T19:17:21.715Z,8.90
2018-10-18T19:19:50.061Z,9.13
2018-10-18T19:22:18.377Z,9.73
2018-10-18T19:24:46.754Z,9.70
2018-10-18T19:27:15.096Z,10.53
2018-10-18T19:29:43.385Z,9.60
2018-10-18T19:32:11.875Z,9.10
2018-10-18T19:34:40.157Z,10.23
2018-10-18T19:37:08.494Z,8.50
2018-10-18T19:39:37.185Z,9.53
2018-10-18T19:42:05.779Z,9.57
2018-10-18T19:44:34.189Z,10.20
2018-10-18T19:47:02.504Z,9.03
2018-10-18T19:49:30.831Z,8.90
2018-10-18T19:51:59.405Z,9.27
2018-10-18T19:54:27.749Z,9.50
2018-10-18T19:56:56.078Z,8.80
2018-10-18T19:59:24.402Z,9.27
2018-10-18T20:01:52.773Z,9.93
2018-10-18T20:04:21.215Z,10.33
2018-10-18T20:06:49.577Z,8.40
2018-10-18T20:09:17.851Z,9.83
2018-10-18T20:11:46.171Z,10.47
2018-10-18T20:14:14.601Z,10.47
2018-10-18T20:16:42.930Z,9.67
2018-10-18T20:19:11.323Z,9.80
2018-10-18T20:21:39.654Z,10.77
2018-10-18T20:24:08.805Z,9.87
2018-10-18T20:26:37.176Z,9.33
2018-10-18T20:29:05.718Z,11.40
2018-10-18T20:31:34.689Z,10.80
2018-10-18T20:34:03.043Z,9.80
2018-10-18T20:36:31.384Z,10.57
2018-10-18T20:38:59.791Z,11.13
2018-10-18T20:41:28.727Z,9.80
2018-10-18T20:43:57.472Z,10.33
2018-10-18T20:46:25.797Z,9.93
2018-10-18T20:48:54.128Z,10.40
2018-10-18T20:51:22.509Z,9.70
2018-10-18T20:53:50.846Z,11.40
2018-10-18T20:56:19.132Z,12.10
2018-10-18T20:58:47.526Z,12.33
2018-10-18T21:01:15.804Z,11.63
2018-10-18T21:03:44.294Z,12.10
2018-10-18T21:06:12.695Z,12.57
2018-10-18T21:08:41.680Z,11.53
2018-10-18T21:11:10.088Z,11.20
2018-10-18T21:13:38.622Z,11.07
2018-10-18T21:16:07.300Z,12.67
2018-10-18T21:18:35.722Z,12.33
2018-10-18T21:21:04.076Z,11.60
2018-10-18T21:23:32.366Z,11.30
2018-10-18T21:26:01.066Z,14.00
2018-10-18T21:28:29.329Z,12.50
2018-10-18T21:30:57.668Z,12.90
2018-10-18T21:33:26.204Z,14.17
2018-10-18T21:35:54.497Z,12.80
2018-10-18T21:38:22.840Z,12.90
2018-10-18T21:40:51.500Z,12.63
2018-10-18T21:43:19.982Z,14.00
2018-10-18T21:45:49.451Z,12.77
2018-10-18T21:48:18.149Z,13.60
2018-10-18T21:50:46.558Z,12.40
2018-10-18T21:53:14.880Z,14.00
2018-10-18T21:55:43.228Z,13.67
2018-10-18T21:58:11.772Z,13.37
2018-10-18T22:00:44.096Z,14.00
2018-10-18T22:03:12.836Z,13.80
2018-10-18T22:05:41.065Z,15.10
2018-10-18T22:08:09.369Z,13.47
2018-10-18T22:10:37.901Z,13.17
2018-10-18T22:13:06.215Z,13.80
2018-10-18T22:15:34.675Z,14.80
2018-10-18T22:18:03.037Z,16.03
2018-10-18T22:20:31.535Z,12.70
2018-10-18T22:25:25.872Z,13.30
2018-10-18T22:27:54.152Z,13.60
2018-10-18T22:30:22.414Z,13.67
2018-10-18T22:32:51.160Z,12.93
2018-10-18T22:35:19.435Z,13.10
2018-10-18T22:37:48.034Z,14.30
2018-10-18T22:40:16.436Z,14.67
2018-10-18T22:42:44.773Z,13.70
2018-10-18T22:45:13.255Z,14.50
2018-10-18T22:47:41.626Z,16.17
2018-10-18T22:50:10.492Z,13.50
2018-10-18T22:52:39.134Z,14.23
2018-10-18T22:55:07.562Z,15.23
2018-10-18T22:57:35.874Z,14.37
2018-10-18T23:00:04.862Z,14.07
2018-10-18T23:02:34.079Z,13.87
2018-10-18T23:05:02.449Z,14.73
2018-10-18T23:07:30.844Z,13.67
2018-10-18T23:09:59.471Z,13.23
2018-10-18T23:12:27.812Z,14.20
2018-10-18T23:14:56.306Z,12.07
2018-10-18T23:17:24.677Z,15.00
2018-10-18T23:19:52.986Z,12.67
2018-10-18T23:22:21.417Z,12.67
2018-10-18T23:24:49.808Z,15.37
2018-10-18T23:27:17.459Z,14.40
2018-10-18T23:29:45.771Z,14.10
2018-10-18T23:32:14.174Z,12.70
2018-10-18T23:34:42.526Z,14.47
2018-10-18T23:37:10.898Z,13.67
2018-10-18T23:39:39.288Z,11.87
2018-10-18T23:42:07.654Z,12.30
2018-10-18T23:44:36.036Z,11.00
2018-10-18T23:47:05.441Z,10.20
2018-10-18T23:49:33.699Z,10.00
2018-10-18T23:52:02.066Z,9.30
2018-10-18T23:54:30.733Z,9.83
2018-10-18T23:56:59.187Z,9.27
2018-10-18T23:59:27.407Z,8.30
